createdAt,value
2023-05-20T00:00:00.301Z,67.47
2023-05-20T00:01:00.232Z,67.71
2023-05-20T00:02:00.222Z,67.40
2023-05-20T00:03:00.303Z,67.71
2023-05-20T00:04:00.362Z,67.10
2023-05-20T00:05:00.408Z,67.80
2023-05-20T00:06:00.245Z,67.19
2023-05-20T00:07:00.180Z,67.27
2023-05-20T00:08:00.182Z,67.71
2023-05-20T00:09:00.222Z,68.11
2023-05-20T00:10:00.187Z,68.11
2023-05-20T00:11:00.300Z,68.11
2023-05-20T00:12:00.107Z,67.77
2023-05-20T00:13:00.147Z,68.11
2023-05-20T00:14:00.172Z,68.18
2023-05-20T00:15:00.153Z,67.88
2023-05-20T00:16:00.256Z,68.28
2023-05-20T00:17:00.241Z,68.08
2023-05-20T00:18:00.164Z,68.28
2023-05-20T00:19:00.304Z,67.88
2023-05-20T00:20:00.114Z,67.77
2023-05-20T00:21:00.170Z,67.47
2023-05-20T00:22:00.120Z,68.18
2023-05-20T00:23:00.061Z,68.18
2023-05-20T00:24:00.016Z,68.49
2023-05-20T00:25:00.023Z,68.38
2023-05-20T00:26:00.856Z,68.49
2023-05-20T00:27:00.044Z,68.18
2023-05-20T00:27:59.987Z,68.69
2023-05-20T00:28:59.989Z,68.49
2023-05-20T00:30:00.015Z,69.20
2023-05-20T00:30:59.980Z,69.53
2023-05-20T00:32:00.041Z,69.23
2023-05-20T00:32:59.990Z,69.40
2023-05-20T00:33:59.963Z,69.20
2023-05-20T00:34:59.956Z,69.30
2023-05-20T00:35:59.924Z,69.20
2023-05-20T00:36:59.969Z,69.20
2023-05-20T00:37:59.910Z,69.13
2023-05-20T00:38:59.910Z,69.50
2023-05-20T00:39:59.928Z,69.43
2023-05-20T00:40:59.904Z,69.64
2023-05-20T00:41:59.891Z,69.23
2023-05-20T00:42:59.909Z,69.94
2023-05-20T00:43:59.871Z,69.84
2023-05-20T00:44:59.867Z,69.94
2023-05-20T00:45:59.905Z,69.84
2023-05-20T00:46:59.859Z,69.77
2023-05-20T00:47:59.980Z,69.74
2023-05-20T00:48:59.827Z,69.43
2023-05-20T00:49:59.868Z,69.94
2023-05-20T00:50:59.842Z,70.55
2023-05-20T00:51:59.821Z,70.25
2023-05-20T00:52:59.924Z,70.35
2023-05-20T00:53:59.814Z,70.04
2023-05-20T00:54:59.805Z,69.64
2023-05-20T00:55:59.802Z,70.45
2023-05-20T00:56:59.774Z,70.35
2023-05-20T00:57:59.791Z,70.55
2023-05-20T00:58:59.815Z,70.35
2023-05-20T00:59:59.759Z,70.65
2023-05-20T01:00:59.765Z,70.86
2023-05-20T01:01:59.746Z,70.55
2023-05-20T01:02:59.844Z,70.14
2023-05-20T01:03:59.765Z,70.14
2023-05-20T01:04:59.752Z,70.65
2023-05-20T01:05:59.718Z,70.14
2023-05-20T01:06:59.699Z,70.55
2023-05-20T01:07:59.706Z,70.52
2023-05-20T01:08:59.725Z,69.40
2023-05-20T01:09:59.711Z,70.42
2023-05-20T01:10:59.717Z,70.55
2023-05-20T01:11:59.706Z,70.52
2023-05-20T01:12:59.671Z,70.92
2023-05-20T01:13:59.632Z,70.31
2023-05-20T01:14:59.671Z,70.01
2023-05-20T01:15:59.637Z,70.52
2023-05-20T01:16:59.620Z,70.42
2023-05-20T01:17:59.662Z,70.31
2023-05-20T01:18:59.647Z,70.21
2023-05-20T01:19:59.653Z,70.31
2023-05-20T01:20:59.593Z,69.81
2023-05-20T01:21:59.572Z,70.01
2023-05-20T01:22:59.591Z,70.62
2023-05-20T01:23:59.558Z,70.31
2023-05-20T01:24:59.583Z,70.92
2023-05-20T01:25:59.539Z,70.52
2023-05-20T01:26:59.539Z,70.31
2023-05-20T01:27:59.549Z,69.91
2023-05-20T01:28:59.588Z,70.42
2023-05-20T01:29:59.514Z,70.82
2023-05-20T01:30:59.584Z,70.92
2023-05-20T01:31:59.534Z,70.01
2023-05-20T01:32:59.521Z,70.01
2023-05-20T01:33:59.515Z,70.52
2023-05-20T01:34:59.507Z,70.72
2023-05-20T01:35:59.532Z,70.92
2023-05-20T01:36:59.475Z,70.82
2023-05-20T01:37:59.457Z,71.03
2023-05-20T01:38:59.443Z,71.03
2023-05-20T01:39:59.474Z,70.72
2023-05-20T01:40:59.483Z,71.03
2023-05-20T01:41:59.445Z,71.12
2023-05-20T01:42:59.444Z,70.82
2023-05-20T01:43:59.435Z,71.03
2023-05-20T01:44:59.428Z,71.12
2023-05-20T01:45:59.916Z,71.23
2023-05-20T01:46:59.438Z,71.12
2023-05-20T01:47:59.489Z,71.43
2023-05-20T01:48:59.382Z,71.03
2023-05-20T01:49:59.370Z,70.92
2023-05-20T01:50:59.381Z,71.12
2023-05-20T01:51:59.422Z,71.33
2023-05-20T01:52:59.365Z,71.33
2023-05-20T01:53:59.361Z,71.53
2023-05-20T01:54:59.351Z,71.12
2023-05-20T01:55:59.341Z,71.23
2023-05-20T01:56:59.360Z,71.06
2023-05-20T01:57:59.316Z,71.53
2023-05-20T01:58:59.319Z,71.33
2023-05-20T01:59:59.303Z,71.64
2023-05-20T02:00:59.339Z,71.67
2023-05-20T02:01:59.358Z,71.67
2023-05-20T02:02:59.331Z,71.77
2023-05-20T02:03:59.287Z,71.43
2023-05-20T02:04:59.273Z,71.77
2023-05-20T02:05:59.352Z,71.73
2023-05-20T02:06:59.260Z,71.94
2023-05-20T02:07:59.278Z,71.47
2023-05-20T02:08:59.261Z,71.33
2023-05-20T02:09:59.236Z,71.12
2023-05-20T02:10:59.237Z,71.57
2023-05-20T02:11:59.210Z,71.26
2023-05-20T02:12:59.279Z,71.36
2023-05-20T02:13:59.211Z,71.06
2023-05-20T02:14:59.211Z,71.16
2023-05-20T02:15:59.247Z,72.38
2023-05-20T02:16:59.216Z,71.97
2023-05-20T02:17:59.270Z,72.99
2023-05-20T02:21:02.671Z,72.38
2023-05-20T02:22:03.330Z,72.17
2023-05-20T02:22:42.885Z,72.01
2023-05-20T02:23:54.258Z,72.82
2023-05-20T02:24:26.280Z,73.02
2023-05-20T02:25:26.268Z,73.02
2023-05-20T02:26:26.270Z,73.02
2023-05-20T02:27:26.277Z,72.82
2023-05-20T02:28:26.302Z,73.54
2023-05-20T02:29:26.259Z,72.72
2023-05-20T02:30:26.255Z,72.72
2023-05-20T02:31:26.270Z,72.86
2023-05-20T02:32:26.221Z,73.87
2023-05-20T02:33:26.222Z,73.26
2023-05-20T02:34:26.405Z,73.26
2023-05-20T02:35:26.200Z,73.67
2023-05-20T02:36:26.193Z,73.47
2023-05-20T02:37:26.185Z,73.77
2023-05-20T02:38:26.200Z,73.77
2023-05-20T02:39:26.226Z,73.91
2023-05-20T02:40:26.164Z,73.87
2023-05-20T02:41:26.173Z,74.18
2023-05-20T02:42:26.180Z,74.28
2023-05-20T02:43:26.185Z,73.77
2023-05-20T02:44:26.181Z,74.08
2023-05-20T02:45:26.130Z,74.48
2023-05-20T02:46:26.185Z,74.08
2023-05-20T02:47:26.135Z,74.28
2023-05-20T02:48:26.115Z,74.18
2023-05-20T02:49:26.118Z,74.48
2023-05-20T02:50:26.122Z,74.89
2023-05-20T02:51:26.112Z,74.99
2023-05-20T02:52:26.078Z,74.48
2023-05-20T02:53:26.073Z,74.58
2023-05-20T02:54:26.064Z,74.38
2023-05-20T02:55:26.096Z,74.48
2023-05-20T02:56:26.063Z,74.69
2023-05-20T02:57:26.041Z,75.23
2023-05-20T02:58:26.020Z,74.89
2023-05-20T02:59:26.011Z,74.38
2023-05-20T03:00:26.064Z,74.48
2023-05-20T03:01:26.069Z,74.28
2023-05-20T03:02:26.041Z,74.28
2023-05-20T03:03:25.988Z,74.69
2023-05-20T03:04:26.020Z,74.18
2023-05-20T03:05:25.969Z,74.48
2023-05-20T03:06:26.026Z,74.99
2023-05-20T03:07:25.969Z,74.89
2023-05-20T03:08:25.972Z,74.62
2023-05-20T03:09:25.931Z,74.82
2023-05-20T03:10:25.986Z,75.02
2023-05-20T03:11:25.981Z,74.93
2023-05-20T03:12:25.920Z,74.72
2023-05-20T03:13:25.899Z,75.23
2023-05-20T03:14:25.932Z,75.23
2023-05-20T03:15:25.926Z,75.13
2023-05-20T03:16:25.997Z,75.43
2023-05-20T03:17:25.929Z,75.54
2023-05-20T03:18:25.896Z,75.23
2023-05-20T03:19:25.989Z,75.84
2023-05-20T03:20:25.880Z,75.64
2023-05-20T03:21:25.903Z,75.74
2023-05-20T03:22:25.855Z,75.74
2023-05-20T03:23:25.833Z,75.02
2023-05-20T03:24:25.844Z,75.43
2023-05-20T03:25:25.815Z,75.13
2023-05-20T03:26:25.829Z,75.81
2023-05-20T03:27:25.850Z,75.02
2023-05-20T03:28:25.820Z,75.23
2023-05-20T03:29:25.803Z,75.84
2023-05-20T03:30:25.805Z,75.84
2023-05-20T03:31:25.886Z,75.64
2023-05-20T03:32:25.865Z,75.64
2023-05-20T03:33:25.810Z,75.74
2023-05-20T03:34:25.783Z,75.74
2023-05-20T03:35:25.826Z,75.88
2023-05-20T03:36:25.761Z,75.95
2023-05-20T03:37:25.764Z,75.98
2023-05-20T03:38:25.761Z,76.35
2023-05-20T03:39:25.727Z,76.18
2023-05-20T03:40:25.702Z,75.95
2023-05-20T03:41:25.735Z,76.69
2023-05-20T03:42:25.713Z,76.49
2023-05-20T03:43:25.747Z,77.40
2023-05-20T03:44:25.675Z,76.59
2023-05-20T03:45:25.679Z,76.69
2023-05-20T03:46:25.784Z,76.59
2023-05-20T03:47:25.798Z,76.96
2023-05-20T03:48:25.720Z,76.15
2023-05-20T03:49:25.663Z,76.56
2023-05-20T03:50:25.668Z,76.35
2023-05-20T03:51:25.630Z,76.65
2023-05-20T03:52:25.627Z,76.35
2023-05-20T03:53:25.880Z,76.25
2023-05-20T03:54:25.598Z,75.95
2023-05-20T03:55:25.591Z,76.35
2023-05-20T03:56:25.604Z,76.15
2023-05-20T03:57:25.598Z,76.04
2023-05-20T03:58:25.572Z,75.95
2023-05-20T03:59:25.630Z,76.35
2023-05-20T04:00:25.577Z,76.15
2023-05-20T04:01:25.573Z,76.56
2023-05-20T04:02:25.629Z,76.76
2023-05-20T04:03:25.626Z,76.65
2023-05-20T04:04:25.584Z,76.65
2023-05-20T04:05:25.558Z,76.96
2023-05-20T04:06:25.504Z,77.17
2023-05-20T04:07:25.506Z,76.96
2023-05-20T04:08:25.513Z,76.96
2023-05-20T04:09:25.538Z,76.79
2023-05-20T04:10:25.476Z,76.86
2023-05-20T04:11:25.506Z,76.86
2023-05-20T04:12:25.484Z,77.26
2023-05-20T04:13:25.508Z,77.17
2023-05-20T04:14:25.527Z,77.06
2023-05-20T04:15:25.496Z,76.79
2023-05-20T04:16:25.506Z,76.86
2023-05-20T04:17:25.468Z,76.69
2023-05-20T04:18:25.451Z,77.17
2023-05-20T04:19:25.462Z,76.79
2023-05-20T04:20:25.477Z,77.10
2023-05-20T04:21:25.426Z,76.96
2023-05-20T04:22:25.412Z,77.06
2023-05-20T04:23:25.424Z,77.00
2023-05-20T04:24:25.421Z,77.20
2023-05-20T04:25:25.407Z,77.17
2023-05-20T04:26:25.387Z,77.10
2023-05-20T04:27:25.397Z,77.10
2023-05-20T04:28:25.373Z,77.30
2023-05-20T04:29:25.358Z,77.71
2023-05-20T04:30:25.388Z,77.91
2023-05-20T04:31:25.386Z,77.87
2023-05-20T04:32:25.363Z,77.91
2023-05-20T04:33:25.326Z,77.47
2023-05-20T04:34:25.313Z,77.57
2023-05-20T04:35:25.328Z,77.26
2023-05-20T04:36:25.325Z,76.96
2023-05-20T04:37:25.288Z,77.17
2023-05-20T04:38:26.467Z,78.08
2023-05-20T04:39:25.292Z,77.17
2023-05-20T04:40:25.285Z,77.47
2023-05-20T04:41:25.382Z,77.13
2023-05-20T04:42:25.272Z,77.23
2023-05-20T04:43:25.255Z,76.72
2023-05-20T04:44:25.224Z,77.23
2023-05-20T04:45:25.222Z,76.48
2023-05-20T04:46:25.357Z,76.48
2023-05-20T04:47:25.295Z,76.31
2023-05-20T04:48:25.206Z,76.62
2023-05-20T04:49:25.218Z,76.52
2023-05-20T04:50:25.246Z,76.31
2023-05-20T04:51:25.194Z,76.28
2023-05-20T04:52:25.224Z,76.92
2023-05-20T04:53:25.178Z,76.28
2023-05-20T04:54:25.193Z,76.59
2023-05-20T04:55:25.164Z,76.38
2023-05-20T04:56:25.164Z,76.99
2023-05-20T04:57:25.163Z,76.38
2023-05-20T04:58:25.449Z,76.07
2023-05-20T04:59:25.166Z,75.77
2023-05-20T05:00:25.149Z,76.07
2023-05-20T05:01:25.155Z,76.59
2023-05-20T05:02:25.120Z,76.38
2023-05-20T05:03:25.115Z,75.87
2023-05-20T05:04:25.191Z,76.07
2023-05-20T05:05:25.101Z,76.59
2023-05-20T05:06:25.101Z,75.37
2023-05-20T05:07:25.090Z,75.87
2023-05-20T05:08:25.081Z,76.18
2023-05-20T05:09:25.071Z,75.98
2023-05-20T05:10:25.108Z,76.07
2023-05-20T05:11:25.076Z,76.28
2023-05-20T05:12:25.038Z,76.59
2023-05-20T05:13:25.080Z,75.98
2023-05-20T05:14:25.217Z,75.73
2023-05-20T05:15:25.021Z,75.98
2023-05-20T05:16:25.113Z,76.07
2023-05-20T05:17:25.055Z,76.34
2023-05-20T05:18:25.020Z,76.07
2023-05-20T05:19:25.120Z,76.48
2023-05-20T05:20:25.019Z,76.68
2023-05-20T05:21:24.980Z,76.48
2023-05-20T05:22:25.047Z,76.68
2023-05-20T05:23:24.958Z,76.68
2023-05-20T05:24:24.977Z,76.79
2023-05-20T05:25:24.955Z,76.59
2023-05-20T05:26:24.941Z,76.89
2023-05-20T05:27:24.951Z,76.59
2023-05-20T05:28:24.983Z,77.20
2023-05-20T05:29:24.923Z,76.99
2023-05-20T05:30:24.933Z,76.99
2023-05-20T05:31:24.920Z,77.09
2023-05-20T05:32:24.986Z,76.89
2023-05-20T05:33:24.955Z,76.99
2023-05-20T05:34:24.968Z,76.79
2023-05-20T05:35:25.042Z,76.79
2023-05-20T05:36:24.868Z,76.79
2023-05-20T05:37:24.859Z,77.09
2023-05-20T05:38:24.866Z,76.79
2023-05-20T05:39:24.852Z,77.29
2023-05-20T05:40:24.878Z,77.91
2023-05-20T05:41:24.852Z,77.81
2023-05-20T05:42:24.829Z,77.09
2023-05-20T05:43:24.825Z,77.20
2023-05-20T05:44:24.841Z,77.50
2023-05-20T05:45:24.799Z,76.99
2023-05-20T05:46:24.859Z,76.86
2023-05-20T05:47:24.822Z,76.99
2023-05-20T05:48:24.808Z,77.29
2023-05-20T05:49:24.770Z,77.09
2023-05-20T05:50:24.756Z,77.40
2023-05-20T05:51:24.804Z,77.20
2023-05-20T05:52:24.861Z,76.99
2023-05-20T05:53:24.779Z,77.29
2023-05-20T05:54:24.734Z,77.70
2023-05-20T05:55:24.766Z,77.50
2023-05-20T05:56:24.726Z,77.60
2023-05-20T05:57:24.698Z,77.29
2023-05-20T05:58:24.750Z,77.70
2023-05-20T05:59:24.706Z,77.70
2023-05-20T06:00:24.733Z,77.60
2023-05-20T06:01:24.749Z,77.36
2023-05-20T06:02:24.811Z,77.50
2023-05-20T06:03:24.772Z,77.20
2023-05-20T06:04:25.076Z,77.56
2023-05-20T06:05:25.814Z,77.77
2023-05-20T06:06:24.680Z,77.67
2023-05-20T06:07:24.656Z,77.67
2023-05-20T06:08:24.683Z,77.67
2023-05-20T06:09:24.652Z,76.86
2023-05-20T06:10:24.675Z,77.87
2023-05-20T06:11:24.632Z,77.36
2023-05-20T06:12:24.594Z,76.86
2023-05-20T06:13:24.633Z,76.92
2023-05-20T06:14:24.619Z,76.92
2023-05-20T06:15:24.604Z,77.56
2023-05-20T06:16:24.823Z,77.77
2023-05-20T06:17:24.593Z,77.06
2023-05-20T06:18:24.574Z,76.65
2023-05-20T06:19:24.616Z,77.67
2023-05-20T06:20:24.573Z,76.95
2023-05-20T06:21:24.557Z,77.47
2023-05-20T06:22:24.592Z,76.61
2023-05-20T06:23:24.564Z,76.61
2023-05-20T06:24:24.908Z,76.95
2023-05-20T06:25:24.540Z,77.43
2023-05-20T06:26:24.537Z,76.92
2023-05-20T06:27:24.520Z,76.51
2023-05-20T06:28:24.561Z,76.55
2023-05-20T06:29:24.500Z,77.36
2023-05-20T06:30:24.545Z,77.83
2023-05-20T06:31:24.540Z,76.92
2023-05-20T06:32:24.512Z,76.78
2023-05-20T06:33:24.491Z,77.12
2023-05-20T06:34:24.513Z,76.58
2023-05-20T06:35:24.475Z,75.87
2023-05-20T06:36:24.465Z,75.67
2023-05-20T06:37:24.542Z,75.60
2023-05-20T06:38:24.457Z,76.51
2023-05-20T06:39:24.434Z,76.82
2023-05-20T06:40:24.480Z,76.58
2023-05-20T06:41:24.434Z,76.58
2023-05-20T06:42:24.400Z,77.33
2023-05-20T06:43:24.404Z,76.98
2023-05-20T06:44:24.395Z,76.37
2023-05-20T06:45:24.415Z,75.36
2023-05-20T06:46:24.460Z,75.22
2023-05-20T06:47:24.391Z,75.02
2023-05-20T06:48:24.379Z,75.16
2023-05-20T06:49:24.359Z,76.61
2023-05-20T06:50:24.335Z,76.88
2023-05-20T06:51:24.335Z,76.58
2023-05-20T06:52:24.363Z,76.31
2023-05-20T06:53:24.336Z,75.97
2023-05-20T06:54:24.354Z,76.17
2023-05-20T06:55:24.317Z,75.63
2023-05-20T06:56:24.316Z,75.97
2023-05-20T06:57:24.304Z,76.41
2023-05-20T06:58:24.340Z,76.65
2023-05-20T06:59:24.300Z,76.92
2023-05-20T07:00:24.298Z,76.78
2023-05-20T07:01:24.270Z,75.56
2023-05-20T07:02:24.274Z,75.87
2023-05-20T07:03:24.255Z,75.67
2023-05-20T07:04:24.517Z,76.88
2023-05-20T07:05:24.227Z,76.92
2023-05-20T07:06:24.204Z,76.68
2023-05-20T07:07:24.218Z,76.68
2023-05-20T07:08:24.193Z,75.73
2023-05-20T07:09:24.195Z,75.90
2023-05-20T07:10:24.245Z,75.49
2023-05-20T07:11:24.194Z,74.98
2023-05-20T07:12:24.156Z,74.54
2023-05-20T07:13:24.225Z,74.74
2023-05-20T07:14:24.192Z,73.49
2023-05-20T07:15:24.183Z,73.70
2023-05-20T07:16:24.206Z,73.70
2023-05-20T07:17:24.162Z,74.21
2023-05-20T07:18:24.112Z,73.49
2023-05-20T07:19:24.315Z,73.60
2023-05-20T07:20:24.117Z,73.49
2023-05-20T07:21:24.116Z,72.45
2023-05-20T07:22:24.153Z,72.72
2023-05-20T07:23:24.121Z,74.04
2023-05-20T07:24:24.092Z,74.34
2023-05-20T07:25:24.063Z,73.97
2023-05-20T07:26:24.060Z,72.96
2023-05-20T07:27:24.060Z,72.11
2023-05-20T07:28:24.134Z,73.32
2023-05-20T07:29:24.056Z,71.80
2023-05-20T07:30:24.083Z,72.31
2023-05-20T07:31:24.044Z,71.40
2023-05-20T07:32:24.074Z,72.68
2023-05-20T07:33:24.013Z,72.89
2023-05-20T07:34:24.055Z,74.17
2023-05-20T07:35:24.003Z,72.72
2023-05-20T07:36:24.012Z,71.88
2023-05-20T07:37:24.012Z,71.37
2023-05-20T07:38:23.980Z,71.37
2023-05-20T07:39:23.994Z,71.47
2023-05-20T07:40:24.110Z,72.58
2023-05-20T07:41:23.956Z,73.49
2023-05-20T07:42:23.979Z,74.37
2023-05-20T07:43:23.977Z,73.90
2023-05-20T07:44:23.924Z,74.10
2023-05-20T07:45:23.965Z,74.07
2023-05-20T07:46:23.999Z,72.75
2023-05-20T07:47:23.928Z,73.56
2023-05-20T07:48:23.938Z,74.10
2023-05-20T07:49:23.904Z,74.30
2023-05-20T07:50:23.880Z,74.10
2023-05-20T07:51:23.893Z,75.15
2023-05-20T07:52:23.914Z,75.59
2023-05-20T07:53:23.881Z,76.14
2023-05-20T07:54:23.865Z,76.54
2023-05-20T07:55:23.873Z,76.81
2023-05-20T07:56:23.852Z,75.90
2023-05-20T07:57:23.843Z,75.66
2023-05-20T07:58:23.874Z,75.49
2023-05-20T07:59:23.853Z,76.40
2023-05-20T08:00:23.881Z,76.31
2023-05-20T08:01:23.818Z,76.51
2023-05-20T08:02:23.853Z,76.40
2023-05-20T08:03:23.907Z,76.33
2023-05-20T08:04:23.887Z,74.91
2023-05-20T08:05:23.784Z,75.05
2023-05-20T08:06:23.810Z,75.42
2023-05-20T08:07:23.752Z,74.88
2023-05-20T08:08:23.764Z,74.77
2023-05-20T08:09:23.753Z,73.46
2023-05-20T08:10:23.960Z,75.25
2023-05-20T08:11:23.720Z,75.59
2023-05-20T08:12:23.733Z,73.97
2023-05-20T08:13:23.731Z,74.07
2023-05-20T08:14:23.725Z,74.30
2023-05-20T08:15:23.693Z,72.34
2023-05-20T08:16:23.734Z,71.26
2023-05-20T08:17:23.727Z,70.76
2023-05-20T08:18:23.671Z,70.05
2023-05-20T08:19:23.767Z,70.15
2023-05-20T08:20:23.690Z,69.75
2023-05-20T08:21:23.660Z,70.69
2023-05-20T08:22:23.702Z,71.47
2023-05-20T08:23:23.642Z,70.46
2023-05-20T08:24:23.656Z,70.59
2023-05-20T08:25:23.653Z,71.03
2023-05-20T08:26:23.636Z,72.28
2023-05-20T08:27:23.625Z,71.17
2023-05-20T08:28:23.634Z,69.71
2023-05-20T08:29:23.593Z,69.85
2023-05-20T08:30:23.596Z,69.45
2023-05-20T08:31:23.606Z,70.59
2023-05-20T08:32:23.684Z,71.67
2023-05-20T08:33:23.576Z,73.05
2023-05-20T08:34:23.622Z,73.39
2023-05-20T08:35:24.802Z,73.09
2023-05-20T08:36:23.559Z,73.39
2023-05-20T08:37:23.536Z,73.90
2023-05-20T08:38:23.582Z,71.80
2023-05-20T08:39:23.524Z,72.01
2023-05-20T08:40:23.593Z,70.56
2023-05-20T08:41:23.501Z,70.69
2023-05-20T08:42:23.537Z,71.37
2023-05-20T08:43:23.485Z,69.58
2023-05-20T08:44:23.514Z,68.24
2023-05-20T08:45:23.478Z,68.77
2023-05-20T08:46:23.596Z,69.51
2023-05-20T08:47:23.474Z,69.89
2023-05-20T08:48:23.473Z,69.48
2023-05-20T08:49:23.542Z,69.38
2023-05-20T08:50:23.457Z,68.91
2023-05-20T08:51:23.849Z,66.76
2023-05-20T08:52:23.474Z,66.89
2023-05-20T08:53:23.475Z,68.10
2023-05-20T08:54:23.437Z,68.44
2023-05-20T08:55:23.418Z,66.60
2023-05-20T08:56:23.414Z,65.93
2023-05-20T08:57:23.429Z,64.78
2023-05-20T08:58:23.596Z,65.59
2023-05-20T08:59:23.404Z,65.09
2023-05-20T09:00:23.388Z,66.73
2023-05-20T09:01:23.413Z,66.93
2023-05-20T09:02:23.417Z,65.42
2023-05-20T09:03:23.371Z,64.02
2023-05-20T09:04:23.417Z,63.76
2023-05-20T09:05:23.368Z,62.68
2023-05-20T09:06:23.366Z,63.75
2023-05-20T09:07:23.345Z,66.76
2023-05-20T09:08:23.336Z,67.50
2023-05-20T09:09:23.334Z,67.77
2023-05-20T09:10:23.627Z,66.33
2023-05-20T09:11:23.326Z,66.42
2023-05-20T09:12:23.298Z,66.19
2023-05-20T09:13:24.008Z,67.93
2023-05-20T09:14:23.290Z,66.02
2023-05-20T09:15:23.285Z,66.56
2023-05-20T09:16:23.392Z,67.30
2023-05-20T09:17:23.315Z,65.16
2023-05-20T09:18:23.241Z,63.82
2023-05-20T09:19:24.437Z,64.02
2023-05-20T09:20:23.254Z,63.18
2023-05-20T09:21:23.235Z,65.33
2023-05-20T09:22:23.253Z,63.48
2023-05-20T09:23:23.246Z,63.15
2023-05-20T09:24:23.250Z,64.96
2023-05-20T09:25:24.024Z,61.98
2023-05-20T09:26:23.198Z,65.69
2023-05-20T09:27:23.188Z,66.63
2023-05-20T09:28:23.211Z,64.18
2023-05-20T09:29:23.197Z,66.56
2023-05-20T09:30:23.158Z,68.07
2023-05-20T09:31:23.170Z,66.46
2023-05-20T09:32:23.167Z,66.42
2023-05-20T09:33:23.155Z,66.83
2023-05-20T09:34:23.161Z,66.67
2023-05-20T09:35:23.125Z,64.46
2023-05-20T09:36:23.121Z,61.46
2023-05-20T09:37:23.125Z,60.82
2023-05-20T09:38:23.104Z,61.00
2023-05-20T09:39:23.106Z,61.07
2023-05-20T09:40:23.139Z,60.12
2023-05-20T09:41:23.093Z,60.28
2023-05-20T09:42:23.099Z,60.52
2023-05-20T09:43:23.069Z,61.88
2023-05-20T09:44:23.088Z,61.46
2023-05-20T09:45:23.056Z,61.08
2023-05-20T09:46:23.168Z,60.10
2023-05-20T09:47:23.089Z,61.77
2023-05-20T09:48:23.038Z,63.59
2023-05-20T09:49:23.004Z,64.15
2023-05-20T09:50:23.015Z,64.12
2023-05-20T09:51:23.010Z,64.45
2023-05-20T09:52:23.030Z,64.45
2023-05-20T09:53:23.029Z,63.71
2023-05-20T09:54:22.984Z,64.36
2023-05-20T09:55:23.008Z,63.28
2023-05-20T09:56:22.973Z,62.42
2023-05-20T09:57:22.966Z,60.28
2023-05-20T09:58:22.983Z,61.41
2023-05-20T09:59:22.944Z,64.29
2023-05-20T10:00:22.963Z,61.58
2023-05-20T10:01:22.948Z,60.29
2023-05-20T10:02:23.011Z,61.08
2023-05-20T10:03:23.145Z,60.85
2023-05-20T10:04:22.946Z,59.77
2023-05-20T10:05:22.912Z,61.34
2023-05-20T10:06:22.909Z,63.59
2023-05-20T10:07:34.031Z,63.99
2023-05-20T10:08:23.893Z,62.89
2023-05-20T10:09:22.914Z,60.82
2023-05-20T10:10:22.930Z,60.98
2023-05-20T10:11:22.876Z,62.24
2023-05-20T10:12:22.867Z,64.07
2023-05-20T10:13:22.853Z,66.63
2023-05-20T10:14:22.840Z,65.19
2023-05-20T10:15:22.859Z,64.13
2023-05-20T10:16:23.476Z,62.15
2023-05-20T10:17:22.839Z,62.85
2023-05-20T10:18:22.808Z,62.68
2023-05-20T10:19:22.996Z,62.45
2023-05-20T10:20:22.824Z,61.66
2023-05-20T10:21:22.778Z,61.87
2023-05-20T10:22:22.818Z,63.28
2023-05-20T10:23:22.777Z,63.56
2023-05-20T10:24:22.776Z,66.22
2023-05-20T10:25:22.765Z,66.50
2023-05-20T10:26:22.761Z,64.02
2023-05-20T10:27:22.753Z,63.12
2023-05-20T10:28:22.893Z,61.43
2023-05-20T10:29:22.730Z,60.39
2023-05-20T10:30:22.771Z,60.77
2023-05-20T10:31:22.707Z,57.65
2023-05-20T10:32:22.755Z,57.29
2023-05-20T10:33:22.744Z,55.92
2023-05-20T10:34:22.729Z,57.68
2023-05-20T10:35:22.698Z,56.65
2023-05-20T10:36:22.684Z,57.15
2023-05-20T10:37:22.657Z,57.87
2023-05-20T10:38:22.682Z,56.22
2023-05-20T10:39:22.679Z,56.57
2023-05-20T10:40:22.729Z,58.18
2023-05-20T10:41:22.661Z,55.99
2023-05-20T10:42:22.674Z,59.12
2023-05-20T10:43:24.026Z,60.91
2023-05-20T10:44:22.640Z,62.75
2023-05-20T10:45:22.616Z,62.26
2023-05-20T10:47:25.820Z,56.85
2023-05-20T10:48:22.711Z,61.33
2023-05-20T10:49:26.832Z,59.44
2023-05-20T10:50:23.567Z,56.17
2023-05-20T10:51:22.595Z,56.37
2023-05-20T10:52:22.594Z,57.33
2023-05-20T10:53:32.790Z,58.99
2023-05-20T10:54:23.555Z,59.42
2023-05-20T10:55:22.601Z,59.85
2023-05-20T10:56:22.560Z,61.77
2023-05-20T10:57:22.515Z,64.38
2023-05-20T10:58:22.566Z,65.39
2023-05-20T10:59:22.627Z,64.05
2023-05-20T11:00:22.508Z,63.21
2023-05-20T11:01:22.552Z,63.28
2023-05-20T11:02:22.511Z,63.89
2023-05-20T11:03:22.611Z,62.88
2023-05-20T11:04:22.501Z,64.15
2023-05-20T11:05:22.462Z,64.18
2023-05-20T11:06:22.466Z,64.92
2023-05-20T11:07:22.492Z,65.52
2023-05-20T11:08:28.901Z,65.72
2023-05-20T11:09:23.497Z,66.05
2023-05-20T11:10:22.442Z,65.52
2023-05-20T11:11:22.428Z,65.62
2023-05-20T11:12:22.514Z,65.39
2023-05-20T11:13:22.456Z,65.59
2023-05-20T11:14:22.439Z,65.59
2023-05-20T11:15:22.426Z,66.63
2023-05-20T11:16:22.480Z,65.92
2023-05-20T11:17:22.401Z,67.02
2023-05-20T11:18:22.380Z,68.87
2023-05-20T11:19:22.405Z,68.33
2023-05-20T11:20:22.383Z,67.02
2023-05-20T11:21:22.657Z,67.07
2023-05-20T11:22:22.360Z,66.66
2023-05-20T11:23:22.339Z,67.30
2023-05-20T11:24:22.353Z,65.49
2023-05-20T11:25:22.384Z,66.46
2023-05-20T11:26:22.361Z,66.96
2023-05-20T11:27:22.405Z,67.23
2023-05-20T11:28:22.325Z,68.54
2023-05-20T11:29:22.291Z,66.99
2023-05-20T11:30:22.287Z,68.80
2023-05-20T11:31:22.285Z,69.45
2023-05-20T11:32:22.385Z,68.64
2023-05-20T11:33:22.380Z,68.30
2023-05-20T11:34:24.827Z,68.91
2023-05-20T11:35:22.234Z,67.36
2023-05-20T11:36:28.061Z,66.53
2023-05-20T11:37:23.276Z,66.99
2023-05-20T11:38:22.222Z,68.87
2023-05-20T11:39:22.359Z,69.48
2023-05-20T11:40:22.223Z,69.04
2023-05-20T11:41:22.199Z,69.58
2023-05-20T11:42:22.231Z,68.64
2023-05-20T11:43:22.175Z,69.04
2023-05-20T11:44:22.218Z,68.87
2023-05-20T11:45:22.235Z,69.28
2023-05-20T11:46:22.218Z,69.24
2023-05-20T11:47:22.762Z,68.77
2023-05-20T11:48:22.198Z,69.01
2023-05-20T11:49:22.173Z,67.80
2023-05-20T11:50:22.223Z,69.11
2023-05-20T11:51:22.182Z,67.36
2023-05-20T11:52:22.138Z,67.70
2023-05-20T11:53:22.113Z,67.36
2023-05-20T11:54:22.096Z,66.93
2023-05-20T11:55:22.112Z,66.97
2023-05-20T11:56:22.136Z,65.26
2023-05-20T11:57:22.116Z,65.33
2023-05-20T11:58:22.108Z,65.59
2023-05-20T11:59:22.076Z,66.90
2023-05-20T12:00:22.136Z,65.46
2023-05-20T12:01:23.286Z,66.83
2023-05-20T12:02:22.226Z,65.89
2023-05-20T12:03:22.222Z,67.00
2023-05-20T12:04:22.161Z,65.33
2023-05-20T12:05:22.062Z,63.62
2023-05-20T12:06:22.004Z,61.83
2023-05-20T12:07:22.005Z,60.86
2023-05-20T12:08:22.005Z,60.53
2023-05-20T12:09:22.024Z,59.79
2023-05-20T12:10:22.014Z,61.08
2023-05-20T12:11:22.013Z,61.54
2023-05-20T12:12:22.066Z,64.02
2023-05-20T12:13:21.967Z,65.46
2023-05-20T12:14:22.070Z,65.26
2023-05-20T12:15:23.049Z,64.05
2023-05-20T12:16:22.065Z,65.29
2023-05-20T12:17:21.946Z,66.93
2023-05-20T12:18:21.990Z,66.50
2023-05-20T12:19:21.947Z,64.69
2023-05-20T12:20:21.933Z,63.02
2023-05-20T12:21:22.006Z,63.42
2023-05-20T12:22:21.917Z,62.65
2023-05-20T12:23:21.929Z,63.99
2023-05-20T12:24:21.922Z,63.56
2023-05-20T12:25:21.895Z,64.02
2023-05-20T12:26:21.955Z,64.19
2023-05-20T12:27:22.357Z,64.22
2023-05-20T12:28:21.896Z,63.89
2023-05-20T12:29:21.869Z,63.68
2023-05-20T12:30:21.878Z,63.56
2023-05-20T12:31:21.875Z,63.25
2023-05-20T12:32:21.834Z,62.45
2023-05-20T12:33:21.880Z,62.99
2023-05-20T12:34:21.852Z,60.75
2023-05-20T12:35:21.783Z,63.39
2023-05-20T12:36:21.811Z,65.26
2023-05-20T12:37:21.854Z,64.32
2023-05-20T12:38:21.847Z,63.99
2023-05-20T12:39:21.836Z,64.19
2023-05-20T12:40:21.816Z,64.46
2023-05-20T12:41:21.767Z,64.39
2023-05-20T12:42:21.747Z,64.49
2023-05-20T12:43:21.742Z,64.12
2023-05-20T12:44:21.841Z,64.42
2023-05-20T12:45:21.828Z,64.12
2023-05-20T12:46:21.736Z,63.51
2023-05-20T12:47:21.878Z,64.12
2023-05-20T12:48:21.730Z,64.69
2023-05-20T12:49:21.690Z,66.36
2023-05-20T12:50:21.689Z,66.66
2023-05-20T12:51:21.743Z,67.19
2023-05-20T12:52:22.819Z,67.60
2023-05-20T12:53:21.670Z,67.36
2023-05-20T12:54:21.711Z,67.07